Time;durP1;ratioP1;P1;durP2;ratioP2;P2;SDS_P1;SDS_P2;PMS_P1;PMS_P2;Temp;Humidity;BMP_temperature;BMP_pressure;BME280_temperature;BME280_humidity;BME280_pressure;Samples;Min_cycle;Max_cycle;Signal;HPM_P1;HPM_P2
2023/12/02 00:00:29;;;;;;;14.33;4.90;;;-1.10;99.90;;;;;;5091572;28;20028;-53
2023/12/02 00:02:55;;;;;;;13.67;5.13;;;-1.10;99.90;;;;;;5091629;28;20360;-52
2023/12/02 00:05:20;;;;;;;12.27;4.53;;;-1.10;99.90;;;;;;5091660;28;20073;-50
2023/12/02 00:07:46;;;;;;;15.07;5.10;;;-1.10;99.90;;;;;;5091604;28;20035;-51
2023/12/02 00:10:12;;;;;;;13.63;5.07;;;-1.00;99.90;;;;;;5091272;28;20024;-54
2023/12/02 00:12:38;;;;;;;12.60;4.47;;;-1.10;99.90;;;;;;5091674;28;20111;-53
2023/12/02 00:15:04;;;;;;;11.63;4.83;;;-1.10;99.90;;;;;;5090305;28;20409;-53
2023/12/02 00:17:30;;;;;;;10.67;4.20;;;-1.10;99.90;;;;;;5091841;28;20028;-52
2023/12/02 00:19:55;;;;;;;11.90;4.07;;;-1.10;99.90;;;;;;5090673;28;20051;-54
2023/12/02 00:22:21;;;;;;;12.20;5.20;;;-1.10;99.90;;;;;;5091417;28;20047;-53
2023/12/02 00:24:47;;;;;;;11.90;4.63;;;-1.10;99.90;;;;;;5091365;28;20111;-54
2023/12/02 00:27:12;;;;;;;11.70;4.10;;;-1.20;99.90;;;;;;5091405;28;20058;-53
2023/12/02 00:29:38;;;;;;;11.33;5.07;;;-1.20;99.90;;;;;;5094639;28;20024;-54
2023/12/02 00:32:04;;;;;;;12.50;5.00;;;-1.20;99.90;;;;;;5095063;28;20035;-54
2023/12/02 00:34:29;;;;;;;13.00;4.50;;;-1.10;99.90;;;;;;5095045;28;20024;-54
2023/12/02 00:36:55;;;;;;;11.47;4.27;;;-1.20;99.90;;;;;;5095095;28;20433;-53
2023/12/02 00:39:21;;;;;;;12.00;4.43;;;-1.20;99.90;;;;;;5094809;28;20032;-54
2023/12/02 00:41:47;;;;;;;8.47;4.17;;;-1.10;99.90;;;;;;5094864;28;20468;-53
2023/12/02 00:44:12;;;;;;;12.27;4.93;;;-1.10;99.90;;;;;;5094848;28;20055;-54
2023/12/02 00:46:38;;;;;;;14.03;5.17;;;-1.10;99.90;;;;;;5094723;28;20503;-54
2023/12/02 00:49:03;;;;;;;9.97;4.33;;;-1.10;99.90;;;;;;5094750;28;20031;-55
2023/12/02 00:51:29;;;;;;;13.10;4.50;;;-1.10;99.90;;;;;;5094746;28;20055;-54
2023/12/02 00:53:55;;;;;;;13.27;4.97;;;-1.10;99.90;;;;;;5094602;28;20541;-51
2023/12/02 00:56:20;;;;;;;12.27;4.43;;;-1.00;99.90;;;;;;5094517;28;20074;-53
2023/12/02 00:58:46;;;;;;;12.80;4.70;;;-1.00;99.90;;;;;;5094688;28;20071;-55
2023/12/02 01:01:11;;;;;;;12.43;4.93;;;-1.00;99.90;;;;;;5094563;28;20043;-55
2023/12/02 01:03:37;;;;;;;13.90;4.77;;;-1.00;99.90;;;;;;5094601;28;20089;-55
2023/12/02 01:06:03;;;;;;;13.93;4.60;;;-0.90;99.90;;;;;;5094263;28;20067;-54
2023/12/02 01:08:28;;;;;;;12.50;4.70;;;-0.90;99.90;;;;;;5076236;28;20038;-54
2023/12/02 01:10:54;;;;;;;9.97;4.30;;;-1.00;99.90;;;;;;5094273;28;20081;-54
2023/12/02 01:13:20;;;;;;;12.73;4.27;;;-1.00;99.90;;;;;;5094649;28;20421;-53
2023/12/02 01:15:46;;;;;;;10.53;4.00;;;-1.00;99.90;;;;;;5094467;28;20058;-51
2023/12/02 01:18:11;;;;;;;8.67;3.90;;;-1.00;99.90;;;;;;5093861;28;20459;-54
2023/12/02 01:20:38;;;;;;;10.17;4.17;;;-1.00;99.90;;;;;;5092237;28;20028;-50
2023/12/02 01:23:03;;;;;;;10.17;3.70;;;-1.00;99.90;;;;;;5093239;28;20115;-55
2023/12/02 01:25:30;;;;;;;11.00;4.27;;;-1.10;99.90;;;;;;5092948;28;20059;-55
2023/12/02 01:27:55;;;;;;;10.13;3.80;;;-1.10;99.90;;;;;;5093127;28;20281;-55
2023/12/02 01:30:21;;;;;;;9.50;3.73;;;-1.00;99.90;;;;;;5093924;28;20024;-54
2023/12/02 01:32:46;;;;;;;9.30;3.57;;;-1.10;99.90;;;;;;5094076;28;20575;-55
2023/12/02 01:35:12;;;;;;;9.33;3.83;;;-1.10;99.90;;;;;;5093846;28;20046;-54
2023/12/02 01:37:38;;;;;;;9.93;3.80;;;-1.20;99.90;;;;;;5093741;28;20084;-54
2023/12/02 01:40:04;;;;;;;10.77;3.40;;;-1.20;99.90;;;;;;5093947;28;20042;-51
2023/12/02 01:42:29;;;;;;;7.17;3.10;;;-1.20;99.90;;;;;;5094595;28;20496;-54
2023/12/02 01:44:55;;;;;;;10.67;3.53;;;-1.20;99.90;;;;;;5093490;28;20032;-53
2023/12/02 01:47:20;;;;;;;7.50;3.60;;;-1.20;99.90;;;;;;5093688;28;20237;-54
2023/12/02 01:49:47;;;;;;;9.90;3.47;;;-1.20;99.90;;;;;;5092283;28;20031;-54
2023/12/02 01:52:13;;;;;;;9.07;3.90;;;-1.20;99.90;;;;;;5093773;28;20081;-51
2023/12/02 01:54:39;;;;;;;8.33;3.60;;;-1.20;99.90;;;;;;5093627;28;20021;-50
2023/12/02 01:57:06;;;;;;;9.73;3.30;;;-1.20;99.90;;;;;;5093554;28;20036;-51
2023/12/02 01:59:31;;;;;;;8.80;3.33;;;-1.20;99.90;;;;;;5092261;28;20290;-53
2023/12/02 02:02:00;;;;;;;9.13;3.40;;;-1.30;99.90;;;;;;5093516;28;20035;-54
2023/12/02 02:04:26;;;;;;;9.03;3.23;;;-1.20;99.90;;;;;;5093152;28;20089;-53
2023/12/02 02:06:51;;;;;;;7.43;3.70;;;-1.20;99.90;;;;;;5093255;28;20075;-53
2023/12/02 02:09:17;;;;;;;9.53;3.87;;;-1.30;99.90;;;;;;5093160;28;20024;-54
2023/12/02 02:11:43;;;;;;;8.67;3.40;;;-1.20;99.90;;;;;;5093289;28;20115;-54
2023/12/02 02:14:08;;;;;;;6.70;3.23;;;-1.20;99.90;;;;;;5093232;28;20020;-54
2023/12/02 02:16:34;;;;;;;7.80;3.13;;;-1.10;99.90;;;;;;5093359;28;20401;-54
2023/12/02 02:19:00;;;;;;;7.47;3.50;;;-1.20;99.90;;;;;;5092880;28;20028;-52
2023/12/02 02:21:26;;;;;;;9.93;3.53;;;-1.20;99.90;;;;;;5093012;28;20020;-53
2023/12/02 02:23:52;;;;;;;6.20;3.03;;;-1.20;99.90;;;;;;5093201;28;20078;-54
2023/12/02 02:26:17;;;;;;;10.47;3.30;;;-1.20;99.90;;;;;;5092870;28;20463;-54
2023/12/02 02:28:43;;;;;;;7.47;3.33;;;-1.20;99.90;;;;;;5092912;28;20032;-54
2023/12/02 02:31:09;;;;;;;7.70;3.47;;;-1.20;99.90;;;;;;5092917;28;20380;-54
2023/12/02 02:33:34;;;;;;;8.43;3.47;;;-1.10;99.90;;;;;;5091579;28;20035;-53
2023/12/02 02:36:00;;;;;;;7.30;3.43;;;-1.20;99.90;;;;;;5092550;28;20557;-54
2023/12/02 02:38:25;;;;;;;7.90;3.20;;;-1.20;99.90;;;;;;5092587;28;20510;-54
2023/12/02 02:40:51;;;;;;;8.90;3.30;;;-1.20;99.90;;;;;;5092782;28;20097;-54
2023/12/02 02:43:17;;;;;;;9.73;3.20;;;-1.20;99.90;;;;;;5092700;28;20496;-53
2023/12/02 02:45:42;;;;;;;8.23;3.53;;;-1.20;99.90;;;;;;5092388;28;20036;-54
2023/12/02 02:48:08;;;;;;;7.33;3.13;;;-1.30;99.90;;;;;;5091741;28;20051;-54
2023/12/02 02:50:34;;;;;;;10.40;3.40;;;-1.30;99.90;;;;;;5091975;28;20392;-54
2023/12/02 02:53:00;;;;;;;8.43;3.10;;;-1.30;99.90;;;;;;5092451;28;20028;-54
2023/12/02 02:55:25;;;;;;;10.57;4.03;;;-1.20;99.90;;;;;;5092451;28;20414;-54
2023/12/02 02:57:51;;;;;;;8.57;3.30;;;-1.20;99.90;;;;;;5092531;28;20039;-54
2023/12/02 03:00:18;;;;;;;9.17;3.00;;;-1.20;99.90;;;;;;5092218;28;20027;-54
2023/12/02 03:02:44;;;;;;;6.43;3.27;;;-1.30;99.90;;;;;;5092279;28;20024;-54
2023/12/02 03:05:10;;;;;;;11.03;3.80;;;-1.30;99.90;;;;;;5092278;28;20492;-53
2023/12/02 03:07:36;;;;;;;8.67;3.50;;;-1.30;99.90;;;;;;5092258;28;20392;-54
2023/12/02 03:10:02;;;;;;;7.50;3.87;;;-1.30;99.90;;;;;;5092152;28;20385;-54
2023/12/02 03:12:27;;;;;;;5.40;3.17;;;-1.40;99.90;;;;;;5092092;28;20430;-54
2023/12/02 03:14:54;;;;;;;6.03;2.97;;;-1.40;99.90;;;;;;5092142;28;20028;-54
2023/12/02 03:17:20;;;;;;;8.97;4.00;;;-1.40;99.90;;;;;;5092322;28;20416;-54
2023/12/02 03:19:47;;;;;;;10.37;3.30;;;-1.40;99.90;;;;;;5091912;28;20036;-55
2023/12/02 03:22:13;;;;;;;9.37;3.57;;;-1.30;99.90;;;;;;5092164;28;20096;-55
2023/12/02 03:24:38;;;;;;;7.23;3.23;;;-1.30;99.90;;;;;;5092145;28;20127;-54
2023/12/02 03:27:04;;;;;;;8.80;3.40;;;-1.30;99.90;;;;;;5092039;28;20032;-50
2023/12/02 03:29:30;;;;;;;9.13;3.00;;;-1.30;99.90;;;;;;5090618;28;20032;-50
2023/12/02 03:31:55;;;;;;;10.87;4.07;;;-1.30;99.90;;;;;;5092040;28;20119;-53
2023/12/02 03:34:21;;;;;;;6.43;3.07;;;-1.30;99.90;;;;;;5091981;28;20028;-54
2023/12/02 03:36:47;;;;;;;7.87;3.63;;;-1.30;99.90;;;;;;5092232;28;20123;-54
2023/12/02 03:39:12;;;;;;;9.37;3.87;;;-1.30;99.90;;;;;;5091948;28;20070;-53
2023/12/02 03:41:42;;;;;;;10.17;3.53;;;-1.30;99.90;;;;;;5091924;28;20047;-54
2023/12/02 03:44:09;;;;;;;8.20;3.47;;;-1.40;99.90;;;;;;5090771;28;20040;-54
2023/12/02 03:46:36;;;;;;;12.43;3.80;;;-1.40;99.90;;;;;;5091926;28;20377;-54
2023/12/02 03:49:02;;;;;;;10.63;3.93;;;-1.30;99.90;;;;;;5091904;28;20032;-54
2023/12/02 03:51:28;;;;;;;9.13;3.57;;;-1.40;99.90;;;;;;5092087;28;20064;-54
2023/12/02 03:53:54;;;;;;;9.43;3.53;;;-1.40;99.90;;;;;;5092213;28;20024;-54
2023/12/02 03:56:20;;;;;;;10.73;4.03;;;-1.40;99.90;;;;;;5091951;28;20119;-54
2023/12/02 03:58:46;;;;;;;10.23;3.47;;;-1.40;99.90;;;;;;5092132;28;20111;-54
2023/12/02 04:01:12;;;;;;;11.00;3.63;;;-1.40;99.90;;;;;;5092053;28;20036;-53
2023/12/02 04:03:38;;;;;;;7.23;3.00;;;-1.30;99.90;;;;;;5095457;28;20035;-54
2023/12/02 04:06:05;;;;;;;11.03;3.80;;;-1.30;99.90;;;;;;5094800;28;20039;-53
2023/12/02 04:08:31;;;;;;;10.40;3.83;;;-1.30;99.90;;;;;;5094430;28;20035;-54
2023/12/02 04:10:57;;;;;;;10.40;3.60;;;-1.30;99.90;;;;;;5094484;28;20040;-54
2023/12/02 04:13:22;;;;;;;10.27;4.23;;;-1.30;99.90;;;;;;5094555;28;20198;-54
2023/12/02 04:15:48;;;;;;;8.67;3.83;;;-1.30;99.90;;;;;;5095022;28;20027;-54
2023/12/02 04:18:13;;;;;;;9.20;3.37;;;-1.30;99.90;;;;;;5095403;28;20055;-54
2023/12/02 04:20:40;;;;;;;9.80;3.43;;;-1.30;99.90;;;;;;5095173;28;20040;-54
2023/12/02 04:23:05;;;;;;;10.17;4.13;;;-1.30;99.90;;;;;;5095403;28;20036;-54
2023/12/02 04:25:31;;;;;;;8.53;4.27;;;-1.30;99.90;;;;;;5095102;28;20039;-54
2023/12/02 04:27:57;;;;;;;11.87;3.97;;;-1.30;99.90;;;;;;5095287;28;20040;-54
2023/12/02 04:30:22;;;;;;;10.63;4.10;;;-1.30;99.90;;;;;;5095044;28;20027;-54
2023/12/02 04:32:48;;;;;;;12.37;4.33;;;-1.30;99.90;;;;;;5096016;28;20148;-54
2023/12/02 04:35:14;;;;;;;11.77;4.33;;;-1.30;99.90;;;;;;5096220;28;20034;-52
2023/12/02 04:37:41;;;;;;;10.97;3.93;;;-1.30;99.90;;;;;;5094886;28;20043;-54
2023/12/02 04:40:11;;;;;;;9.90;3.73;;;-1.30;99.90;;;;;;5094939;28;20476;-54
2023/12/02 04:42:38;;;;;;;8.40;3.40;;;-1.40;99.90;;;;;;5095171;28;20035;-54
2023/12/02 04:45:05;;;;;;;11.87;4.20;;;-1.40;99.90;;;;;;5095013;28;20027;-54
2023/12/02 04:47:31;;;;;;;10.53;3.50;;;-1.40;99.90;;;;;;5094877;28;20408;-54
2023/12/02 04:49:56;;;;;;;11.53;4.30;;;-1.40;99.90;;;;;;5094906;28;20016;-54
2023/12/02 04:52:22;;;;;;;9.03;4.20;;;-1.40;99.90;;;;;;5094835;28;20089;-54
2023/12/02 04:54:48;;;;;;;12.30;4.00;;;-1.40;99.90;;;;;;5094746;28;20451;-54
2023/12/02 04:57:13;;;;;;;8.17;3.43;;;-1.40;99.90;;;;;;5095097;28;20027;-52
2023/12/02 04:59:39;;;;;;;10.30;3.87;;;-1.40;99.90;;;;;;5094647;28;20552;-53
2023/12/02 05:02:04;;;;;;;12.63;4.60;;;-1.40;99.90;;;;;;5094760;28;20081;-53
2023/12/02 05:04:30;;;;;;;9.20;4.17;;;-1.40;99.90;;;;;;5094699;28;20366;-54
2023/12/02 05:06:56;;;;;;;12.73;3.83;;;-1.40;99.90;;;;;;5094428;28;20111;-54
2023/12/02 05:09:21;;;;;;;9.30;3.93;;;-1.40;99.90;;;;;;5094476;28;20480;-54
2023/12/02 05:11:47;;;;;;;10.57;3.77;;;-1.30;99.90;;;;;;5094472;28;20039;-54
2023/12/02 05:14:13;;;;;;;10.60;3.93;;;-1.30;99.90;;;;;;5093611;28;20036;-54
2023/12/02 05:16:44;;;;;;;11.60;4.17;;;-1.30;99.90;;;;;;5093356;28;20082;-54
2023/12/02 05:19:10;;;;;;;9.47;4.13;;;-1.40;99.90;;;;;;5092883;28;20036;-53
2023/12/02 05:21:37;;;;;;;10.17;3.70;;;-1.40;99.90;;;;;;5094309;28;20036;-53
2023/12/02 05:24:02;;;;;;;11.37;4.07;;;-1.40;99.90;;;;;;5094097;28;20384;-54
2023/12/02 05:26:28;;;;;;;12.13;4.73;;;-1.40;99.90;;;;;;5094018;28;20032;-54
2023/12/02 05:28:54;;;;;;;12.80;4.70;;;-1.40;99.90;;;;;;5094057;28;20034;-55
2023/12/02 05:31:19;;;;;;;13.20;4.13;;;-1.40;99.90;;;;;;5094134;28;20373;-54
2023/12/02 05:33:46;;;;;;;11.67;4.80;;;-1.30;99.90;;;;;;5094108;28;20115;-54
2023/12/02 05:36:12;;;;;;;9.90;4.70;;;-1.40;99.90;;;;;;5092743;28;20503;-54
2023/12/02 05:38:38;;;;;;;8.23;3.83;;;-1.30;99.90;;;;;;5092820;28;20119;-54
2023/12/02 05:41:04;;;;;;;12.87;4.93;;;-1.40;99.90;;;;;;5092686;28;20060;-54
2023/12/02 05:43:30;;;;;;;13.07;4.17;;;-1.30;99.90;;;;;;5092850;28;20044;-54
2023/12/02 05:45:56;;;;;;;9.97;4.30;;;-1.30;99.90;;;;;;5092575;28;20031;-54
2023/12/02 05:48:22;;;;;;;13.17;4.93;;;-1.30;99.90;;;;;;5092772;28;20522;-54
2023/12/02 05:50:47;;;;;;;12.97;5.13;;;-1.40;99.90;;;;;;5093971;28;20062;-51
2023/12/02 05:53:13;;;;;;;12.03;5.17;;;-1.40;99.90;;;;;;5093801;28;20032;-54
2023/12/02 05:55:39;;;;;;;13.63;4.80;;;-1.40;99.90;;;;;;5093578;28;20035;-54
2023/12/02 05:58:04;;;;;;;14.33;5.17;;;-1.40;99.90;;;;;;5093488;28;20031;-54
2023/12/02 06:00:30;;;;;;;15.93;5.83;;;-1.40;99.90;;;;;;5093238;28;20039;-54
2023/12/02 06:02:55;;;;;;;14.47;5.57;;;-1.40;99.90;;;;;;5093201;28;20024;-53
2023/12/02 06:05:21;;;;;;;16.47;5.73;;;-1.40;99.90;;;;;;5093268;28;20032;-50
2023/12/02 06:07:46;;;;;;;16.50;5.50;;;-1.40;99.90;;;;;;5093221;28;20039;-54
2023/12/02 06:10:12;;;;;;;15.40;6.03;;;-1.40;99.90;;;;;;5092843;28;20047;-52
2023/12/02 06:12:38;;;;;;;13.20;5.73;;;-1.40;99.90;;;;;;5092952;28;20036;-54
2023/12/02 06:15:04;;;;;;;14.30;6.00;;;-1.40;99.90;;;;;;5092937;28;20063;-52
2023/12/02 06:17:31;;;;;;;15.63;5.77;;;-1.40;99.90;;;;;;5092832;28;20032;-53
2023/12/02 06:19:57;;;;;;;12.83;5.40;;;-1.50;99.90;;;;;;5092810;28;20028;-54
2023/12/02 06:22:22;;;;;;;13.83;5.83;;;-1.50;99.90;;;;;;5092871;28;20491;-54
2023/12/02 06:24:48;;;;;;;14.93;5.43;;;-1.50;99.90;;;;;;5092335;28;20040;-54
2023/12/02 06:27:13;;;;;;;13.73;5.93;;;-1.50;99.90;;;;;;5092201;28;20036;-51
2023/12/02 06:29:39;;;;;;;15.63;5.87;;;-1.40;99.90;;;;;;5092681;28;20031;-54
2023/12/02 06:32:05;;;;;;;15.57;5.83;;;-1.40;99.90;;;;;;5092709;28;20042;-54
2023/12/02 06:34:31;;;;;;;16.40;6.00;;;-1.50;99.90;;;;;;5092701;28;20055;-54
2023/12/02 06:36:56;;;;;;;16.23;5.57;;;-1.40;99.90;;;;;;5092701;28;20430;-54
2023/12/02 06:39:22;;;;;;;16.33;5.37;;;-1.50;99.90;;;;;;5092394;28;20130;-54
2023/12/02 06:41:47;;;;;;;15.70;5.60;;;-1.50;99.90;;;;;;5092507;28;20031;-54
2023/12/02 06:44:13;;;;;;;13.97;5.37;;;-1.50;99.90;;;;;;5092578;28;20129;-54
2023/12/02 06:46:39;;;;;;;14.60;5.47;;;-1.50;99.90;;;;;;5092398;28;20074;-54
2023/12/02 06:49:04;;;;;;;12.97;5.60;;;-1.50;99.90;;;;;;5092679;28;20065;-51
2023/12/02 06:51:30;;;;;;;15.30;5.00;;;-1.60;99.90;;;;;;5092370;28;20112;-51
2023/12/02 06:53:56;;;;;;;19.37;5.87;;;-1.60;99.90;;;;;;5092362;28;20028;-54
2023/12/02 06:56:23;;;;;;;14.57;5.07;;;-1.70;99.90;;;;;;5092093;28;20040;-54
2023/12/02 06:58:50;;;;;;;12.80;5.60;;;-1.80;99.90;;;;;;5092165;28;20036;-51
2023/12/02 07:01:27;;;;;;;15.07;4.97;;;-1.80;99.90;;;;;;5092113;28;20024;-54
2023/12/02 07:03:54;;;;;;;12.70;4.90;;;-1.80;99.90;;;;;;5091329;28;20036;-54
2023/12/02 07:06:20;;;;;;;15.00;5.50;;;-1.80;99.90;;;;;;5091913;28;20035;-55
2023/12/02 07:08:47;;;;;;;13.13;4.77;;;-1.80;99.90;;;;;;5091815;28;20396;-54
2023/12/02 07:11:13;;;;;;;13.27;5.00;;;-1.80;99.90;;;;;;5092250;28;20063;-50
2023/12/02 07:13:39;;;;;;;13.97;6.13;;;-1.80;99.90;;;;;;5091119;28;20039;-54
2023/12/02 07:16:05;;;;;;;12.53;4.77;;;-1.90;99.90;;;;;;5092097;28;20020;-54
2023/12/02 07:18:31;;;;;;;12.70;5.30;;;-1.90;99.90;;;;;;5091952;28;20403;-54
2023/12/02 07:20:56;;;;;;;12.27;5.37;;;-1.90;99.90;;;;;;5091887;28;20024;-54
2023/12/02 07:23:25;;;;;;;15.57;5.17;;;-2.00;99.90;;;;;;5091868;28;20055;-53
2023/12/02 07:25:54;;;;;;;17.98;5.82;;;-2.00;99.90;;;;;;5091669;28;20032;-54
2023/12/02 07:28:20;;;;;;;13.60;5.25;;;-2.00;99.90;;;;;;5092050;28;20024;-53
2023/12/02 07:30:46;;;;;;;14.53;5.40;;;-2.10;99.90;;;;;;5091902;28;20486;-54
2023/12/02 07:33:11;;;;;;;16.23;5.63;;;-2.10;99.90;;;;;;5091860;28;20071;-50
2023/12/02 07:35:37;;;;;;;13.33;4.93;;;-2.00;99.90;;;;;;5073537;28;20441;-52
2023/12/02 07:38:03;;;;;;;12.33;5.03;;;-2.10;99.90;;;;;;5094570;28;20101;-53
2023/12/02 07:40:28;;;;;;;19.07;5.07;;;-2.10;99.90;;;;;;5095799;28;20031;-54
2023/12/02 07:42:54;;;;;;;16.27;6.43;;;-2.10;99.90;;;;;;5095933;28;20032;-54
2023/12/02 07:45:19;;;;;;;16.13;5.23;;;-2.10;99.90;;;;;;5095714;28;20384;-54
2023/12/02 07:47:45;;;;;;;16.63;5.33;;;-2.20;99.90;;;;;;5095850;28;20028;-53
2023/12/02 07:50:10;;;;;;;16.60;5.90;;;-2.20;99.90;;;;;;5095603;28;20362;-53
2023/12/02 07:52:36;;;;;;;15.93;5.97;;;-2.20;99.90;;;;;;5095776;28;20119;-50
2023/12/02 07:55:02;;;;;;;17.57;5.57;;;-2.20;99.90;;;;;;5095564;28;20020;-54
2023/12/02 07:57:27;;;;;;;13.47;5.00;;;-2.20;99.90;;;;;;5095644;28;20032;-53
2023/12/02 07:59:53;;;;;;;14.70;5.53;;;-2.10;99.90;;;;;;5095480;28;20456;-52
2023/12/02 08:02:19;;;;;;;16.57;5.63;;;-2.10;99.90;;;;;;5095584;28;20035;-54
2023/12/02 08:04:44;;;;;;;14.77;6.07;;;-2.00;99.90;;;;;;5095339;28;20055;-53
2023/12/02 08:07:10;;;;;;;13.20;5.73;;;-2.00;99.90;;;;;;5095446;28;20111;-50
2023/12/02 08:09:35;;;;;;;15.00;6.30;;;-2.00;99.90;;;;;;5095288;28;20035;-53
2023/12/02 08:12:01;;;;;;;13.67;5.70;;;-1.90;99.90;;;;;;5095342;28;20089;-53
2023/12/02 08:14:27;;;;;;;14.80;6.00;;;-1.80;99.90;;;;;;5094893;28;20020;-53
2023/12/02 08:16:52;;;;;;;14.27;5.60;;;-1.80;99.90;;;;;;5095124;28;20041;-53
2023/12/02 08:19:18;;;;;;;16.60;5.77;;;-1.80;99.90;;;;;;5094881;28;20064;-54
2023/12/02 08:21:43;;;;;;;15.77;6.20;;;-1.80;99.90;;;;;;5094925;28;20028;-53
2023/12/02 08:24:09;;;;;;;15.90;6.17;;;-1.80;99.90;;;;;;5095059;28;20032;-54
2023/12/02 08:26:35;;;;;;;16.33;6.03;;;-1.80;99.90;;;;;;5094896;28;20396;-49
2023/12/02 08:29:00;;;;;;;16.23;6.60;;;-1.70;99.90;;;;;;5094466;28;20054;-53
2023/12/02 08:31:26;;;;;;;16.37;6.27;;;-1.70;99.90;;;;;;5094437;28;20028;-50
2023/12/02 08:33:51;;;;;;;16.23;6.67;;;-1.70;99.90;;;;;;5094163;28;20020;-51
2023/12/02 08:36:17;;;;;;;14.90;6.10;;;-1.70;99.90;;;;;;5095069;28;20036;-58
2023/12/02 08:38:43;;;;;;;15.77;5.63;;;-1.70;99.90;;;;;;5094522;28;20047;-54
2023/12/02 08:41:08;;;;;;;18.40;6.90;;;-1.60;99.90;;;;;;5094602;28;20036;-55
2023/12/02 08:43:34;;;;;;;14.53;6.13;;;-1.60;99.90;;;;;;5094598;28;20487;-52
2023/12/02 08:46:00;;;;;;;13.80;5.70;;;-1.50;99.90;;;;;;5094414;28;20032;-54
2023/12/02 08:48:26;;;;;;;13.30;5.70;;;-1.60;99.90;;;;;;5093372;28;20415;-55
2023/12/02 08:50:51;;;;;;;12.80;5.60;;;-1.50;99.90;;;;;;5094336;28;20126;-54
2023/12/02 08:53:17;;;;;;;15.83;6.27;;;-1.50;99.90;;;;;;5094606;28;20028;-50
2023/12/02 08:55:43;;;;;;;13.33;5.27;;;-1.40;99.90;;;;;;5094280;28;20031;-54
2023/12/02 08:58:08;;;;;;;17.07;5.83;;;-1.40;99.90;;;;;;5094433;28;20468;-49
2023/12/02 09:00:34;;;;;;;19.60;6.13;;;-1.30;99.90;;;;;;5092732;28;20030;-52
2023/12/02 09:03:00;;;;;;;15.63;5.80;;;-1.30;99.90;;;;;;5094348;28;20485;-50
2023/12/02 09:05:26;;;;;;;15.47;5.90;;;-1.20;99.90;;;;;;5093982;28;20028;-51
2023/12/02 09:07:51;;;;;;;16.00;6.13;;;-1.10;99.90;;;;;;5093961;28;20047;-50
2023/12/02 09:10:18;;;;;;;15.93;6.70;;;-1.00;99.90;;;;;;5094161;28;20032;-53
2023/12/02 09:12:44;;;;;;;12.13;5.10;;;-1.00;99.90;;;;;;5094062;28;20071;-53
2023/12/02 09:15:15;;;;;;;16.50;6.03;;;-1.00;99.90;;;;;;5093953;28;20429;-53
2023/12/02 09:18:05;;;;;;;15.73;5.93;;;-0.90;99.90;;;;;;5093853;28;20504;-50
2023/12/02 09:20:48;;;;;;;13.53;5.70;;;-0.80;99.90;;;;;;5093892;28;20051;-50
2023/12/02 09:23:16;;;;;;;14.10;5.33;;;-0.70;99.90;;;;;;5094034;28;20032;-51
2023/12/02 09:25:43;;;;;;;13.43;5.57;;;-0.50;99.90;;;;;;5093794;28;20047;-52
2023/12/02 09:28:15;;;;;;;13.30;5.77;;;-0.40;99.90;;;;;;5093646;28;20067;-52
2023/12/02 09:30:58;;;;;;;14.63;6.03;;;-0.20;99.90;;;;;;5093768;28;20380;-50
2023/12/02 09:33:25;;;;;;;10.77;4.60;;;0.00;99.90;;;;;;5093879;28;20111;-52
2023/12/02 09:35:55;;;;;;;15.40;5.07;;;0.20;99.90;;;;;;5092396;28;20062;-53
2023/12/02 09:38:21;;;;;;;12.50;5.63;;;0.30;99.90;;;;;;5093503;28;20044;-52
2023/12/02 09:41:01;;;;;;;12.83;4.50;;;0.20;99.90;;;;;;5093656;28;20078;-52
2023/12/02 09:43:32;;;;;;;14.93;6.13;;;0.30;99.90;;;;;;5093575;28;20039;-51
2023/12/02 09:46:17;;;;;;;16.80;5.87;;;0.40;99.90;;;;;;5093591;28;20534;-51
2023/12/02 09:48:51;;;;;;;19.07;6.10;;;0.50;99.90;;;;;;5093490;28;20476;-50
2023/12/02 09:51:34;;;;;;;16.93;6.23;;;0.50;99.90;;;;;;5093221;28;20484;-49
2023/12/02 09:54:30;;;;;;;19.40;6.50;;;0.80;99.90;;;;;;5093067;28;20062;-51
2023/12/02 09:57:08;;;;;;;17.37;6.13;;;1.20;99.90;;;;;;5093348;28;20032;-51
2023/12/02 09:59:33;;;;;;;15.37;5.77;;;1.30;99.90;;;;;;5092881;28;20067;-50
2023/12/02 10:02:27;;;;;;;12.73;5.37;;;1.40;99.90;;;;;;5093295;28;20035;-53
2023/12/02 10:05:13;;;;;;;15.43;6.20;;;1.70;99.90;;;;;;5093219;28;20392;-50
2023/12/02 10:07:54;;;;;;;17.47;7.10;;;2.70;99.90;;;;;;5092535;28;20442;-54
2023/12/02 10:10:26;;;;;;;14.53;6.50;;;3.20;99.90;;;;;;5093181;28;20036;-53
2023/12/02 10:13:10;;;;;;;15.40;5.87;;;3.20;99.90;;;;;;5093195;28;20118;-50
2023/12/02 10:15:40;;;;;;;15.83;6.57;;;3.00;99.90;;;;;;5093146;28;20043;-50
2023/12/02 10:18:13;;;;;;;15.95;6.22;;;2.90;99.90;;;;;;5093516;28;20530;-53
2023/12/02 10:20:41;;;;;;;13.67;6.13;;;2.60;99.90;;;;;;5092858;28;20032;-52
2023/12/02 10:23:26;;;;;;;16.57;6.30;;;2.30;99.90;;;;;;5093218;28;20031;-51
2023/12/02 10:26:15;;;;;;;15.63;6.50;;;2.50;99.90;;;;;;5092800;28;20032;-52
2023/12/02 10:29:07;;;;;;;15.97;6.57;;;3.50;99.90;;;;;;5092717;28;20495;-54
2023/12/02 10:31:35;;;;;;;16.83;7.90;;;5.60;99.90;;;;;;5092607;28;20024;-51
2023/12/02 10:34:26;;;;;;;15.60;6.70;;;7.50;99.20;;;;;;5092875;28;20115;-53
2023/12/02 10:36:54;;;;;;;15.07;7.10;;;8.80;95.30;;;;;;5092697;28;20064;-54
2023/12/02 10:39:29;;;;;;;15.38;6.72;;;10.10;91.90;;;;;;5092512;28;20115;-54
2023/12/02 10:42:01;;;;;;;18.42;8.07;;;9.60;88.40;;;;;;5092544;28;20472;-53
2023/12/02 10:44:31;;;;;;;14.38;7.00;;;7.50;92.20;;;;;;5092708;28;20039;-53
2023/12/02 10:46:58;;;;;;;20.30;8.07;;;5.80;96.80;;;;;;5092478;28;20028;-54
2023/12/02 10:49:24;;;;;;;16.57;7.10;;;5.00;98.90;;;;;;5092212;28;20031;-54
2023/12/02 10:51:53;;;;;;;20.23;8.20;;;4.50;99.60;;;;;;5092193;28;20164;-49
2023/12/02 10:54:23;;;;;;;15.57;7.05;;;3.70;99.90;;;;;;5092247;28;20028;-54
2023/12/02 10:56:52;;;;;;;17.07;7.80;;;3.10;99.90;;;;;;5091024;28;20044;-54
2023/12/02 10:59:21;;;;;;;16.13;7.07;;;3.30;99.90;;;;;;5092206;28;20032;-53
2023/12/02 11:01:55;;;;;;;17.77;6.43;;;4.20;99.90;;;;;;5092262;28;20572;-54
2023/12/02 11:04:28;;;;;;;16.70;6.43;;;5.20;99.90;;;;;;5091972;28;20545;-54
2023/12/02 11:07:05;;;;;;;16.90;7.43;;;5.20;99.40;;;;;;5092103;28;20042;-54
2023/12/02 11:09:58;;;;;;;17.80;7.20;;;4.90;99.90;;;;;;5092006;28;20477;-51
2023/12/02 11:12:40;;;;;;;16.40;7.13;;;4.40;99.90;;;;;;5091327;28;20506;-53
2023/12/02 11:15:11;;;;;;;19.77;7.93;;;4.00;99.90;;;;;;5092001;28;20031;-53
2023/12/02 11:17:47;;;;;;;20.60;7.33;;;3.80;99.90;;;;;;5092206;28;20032;-54
2023/12/02 11:20:30;;;;;;;18.63;7.80;;;4.00;99.90;;;;;;5091866;28;20032;-54
2023/12/02 11:23:14;;;;;;;16.93;7.43;;;4.70;99.90;;;;;;5091993;28;20036;-50
2023/12/02 11:26:06;;;;;;;18.37;7.60;;;5.00;99.90;;;;;;5092122;28;20101;-51
2023/12/02 11:29:09;;;;;;;15.93;7.40;;;5.30;99.90;;;;;;5089243;28;20055;-53
2023/12/02 11:31:46;;;;;;;17.27;7.00;;;5.50;99.60;;;;;;5091830;28;20036;-55
2023/12/02 11:34:42;;;;;;;16.63;8.07;;;5.10;99.60;;;;;;5091849;28;20032;-54
2023/12/02 11:37:26;;;;;;;18.23;8.13;;;4.50;99.90;;;;;;5092364;28;20031;-53
2023/12/02 11:40:22;;;;;;;18.27;7.83;;;4.50;99.90;;;;;;5091756;28;20040;-55
2023/12/02 11:43:14;;;;;;;17.63;7.47;;;5.00;99.90;;;;;;5091856;28;20032;-54
2023/12/02 11:45:42;;;;;;;16.27;7.57;;;6.00;98.70;;;;;;5088457;28;20473;-51
2023/12/02 11:48:35;;;;;;;16.35;7.50;;;7.10;97.10;;;;;;5091889;28;20035;-51
2023/12/02 11:51:35;;;;;;;17.33;7.97;;;7.70;95.10;;;;;;5091884;28;20028;-54
2023/12/02 11:54:10;;;;;;;16.40;7.60;;;7.90;94.20;;;;;;5091629;28;20546;-53
2023/12/02 11:56:41;;;;;;;18.73;8.73;;;7.30;94.60;;;;;;5090508;28;20028;-52
2023/12/02 11:59:16;;;;;;;19.23;8.30;;;6.70;95.50;;;;;;5091571;28;20093;-54
2023/12/02 12:02:00;;;;;;;18.00;7.20;;;5.90;96.90;;;;;;5091834;28;20036;-53
2023/12/02 12:04:51;;;;;;;19.63;8.00;;;5.10;98.30;;;;;;5091593;28;20366;-53
2023/12/02 12:07:54;;;;;;;18.27;7.20;;;4.90;99.00;;;;;;5091913;28;20496;-53
2023/12/02 12:10:36;;;;;;;16.27;7.40;;;4.90;99.70;;;;;;5090660;28;20646;-54
2023/12/02 12:13:03;;;;;;;14.00;6.73;;;5.30;99.30;;;;;;5091677;28;20050;-54
2023/12/02 12:15:30;;;;;;;17.10;6.43;;;5.70;98.10;;;;;;5091571;28;20528;-53
2023/12/02 12:17:55;;;;;;;17.47;6.93;;;6.00;97.80;;;;;;5091682;28;20507;-54
2023/12/02 12:20:23;;;;;;;16.20;7.03;;;5.90;97.60;;;;;;5090252;28;20122;-54
2023/12/02 12:22:48;;;;;;;14.20;5.97;;;5.10;98.30;;;;;;5092025;28;20427;-53
2023/12/02 12:25:14;;;;;;;12.70;5.93;;;4.70;99.30;;;;;;5094269;28;20119;-54
2023/12/02 12:27:40;;;;;;;11.60;5.60;;;4.40;99.90;;;;;;5095124;28;20036;-54
2023/12/02 12:30:07;;;;;;;13.30;5.47;;;4.30;99.90;;;;;;5095258;28;20028;-53
2023/12/02 12:32:32;;;;;;;16.77;6.37;;;4.50;99.50;;;;;;5093532;28;20035;-54
2023/12/02 12:34:58;;;;;;;15.23;6.67;;;5.20;99.20;;;;;;5093923;28;20032;-54
2023/12/02 12:37:24;;;;;;;14.63;6.27;;;6.10;98.00;;;;;;5094448;28;20036;-54
2023/12/02 12:39:50;;;;;;;14.90;6.67;;;7.20;96.30;;;;;;5095453;28;20024;-54
2023/12/02 12:42:21;;;;;;;13.73;6.50;;;8.30;94.40;;;;;;5095264;28;20065;-54
2023/12/02 12:44:47;;;;;;;14.23;6.47;;;9.60;92.00;;;;;;5095128;28;20028;-55
2023/12/02 12:47:14;;;;;;;14.32;6.80;;;10.10;88.60;;;;;;5095372;28;20031;-55